createdAt,value
2023-05-05T00:07:19.717Z,102152.00
2023-05-05T00:12:22.728Z,102147.00
2023-05-05T00:17:25.351Z,102153.00
2023-05-05T00:22:29.373Z,102148.00
2023-05-05T00:27:32.034Z,102149.00
2023-05-05T00:32:34.529Z,102156.00
2023-05-05T00:37:38.450Z,102152.00
2023-05-05T00:42:43.037Z,102151.00
2023-05-05T00:47:49.324Z,102148.00
2023-05-05T00:52:55.958Z,102155.00
2023-05-05T00:57:59.385Z,102147.00
2023-05-05T01:03:02.090Z,102165.00
2023-05-05T01:08:29.199Z,102153.00
2023-05-05T01:13:52.691Z,102157.00
2023-05-05T01:19:14.661Z,102155.00
2023-05-05T01:25:12.572Z,102156.00
2023-05-05T01:30:50.168Z,102161.00
2023-05-05T01:36:03.383Z,102162.00
2023-05-05T01:41:15.114Z,102158.00
2023-05-05T01:46:21.663Z,102158.00
2023-05-05T01:51:28.472Z,102159.00
2023-05-05T01:56:33.132Z,102166.00
2023-05-05T02:01:40.188Z,102152.00
2023-05-05T02:06:46.874Z,102158.00
2023-05-05T02:11:50.465Z,102158.00
2023-05-05T02:16:55.255Z,102167.00
2023-05-05T02:22:00.187Z,102164.00
2023-05-05T02:27:07.343Z,102158.00
2023-05-05T02:32:23.805Z,102152.00
2023-05-05T02:37:33.787Z,102152.00
2023-05-05T02:42:41.422Z,102144.00
2023-05-05T02:47:46.878Z,102155.00
2023-05-05T02:52:51.054Z,102148.00
2023-05-05T02:58:05.290Z,102152.00
2023-05-05T03:03:18.833Z,102161.00
2023-05-05T03:08:35.727Z,102157.00
2023-05-05T03:13:43.503Z,102161.00
2023-05-05T03:18:52.524Z,102158.00
2023-05-05T03:23:58.231Z,102159.00
2023-05-05T03:29:00.993Z,102164.00
2023-05-05T03:34:07.326Z,102154.00
2023-05-05T03:39:17.953Z,102175.00
2023-05-05T03:44:21.224Z,102182.00
2023-05-05T03:49:26.893Z,102181.00
2023-05-05T03:54:31.251Z,102173.00
2023-05-05T03:59:36.178Z,102173.00
2023-05-05T04:04:39.230Z,102178.00
2023-05-05T04:09:43.476Z,102203.00
2023-05-05T04:14:47.265Z,102196.00
2023-05-05T04:19:49.752Z,102192.00
2023-05-05T04:24:53.881Z,102199.00
2023-05-05T04:29:56.802Z,102216.00
2023-05-05T04:35:03.163Z,102217.00
2023-05-05T04:40:10.201Z,102203.00
2023-05-05T04:45:14.192Z,102210.00
2023-05-05T04:50:17.558Z,102223.00
2023-05-05T04:55:22.162Z,102236.00
2023-05-05T05:00:25.549Z,102223.00
2023-05-05T05:05:31.875Z,102236.00
2023-05-05T05:10:36.337Z,102232.00
2023-05-05T05:15:38.871Z,102240.00
2023-05-05T05:20:41.605Z,102238.00
2023-05-05T05:25:46.297Z,102228.00
2023-05-05T05:30:51.611Z,102246.00
2023-05-05T05:35:54.348Z,102250.00
2023-05-05T05:40:59.657Z,102241.00
2023-05-05T05:46:02.552Z,102251.00
2023-05-05T05:51:05.592Z,102256.00
2023-05-05T05:56:13.877Z,102255.00
2023-05-05T06:01:19.552Z,102260.00
2023-05-05T06:06:22.931Z,102257.00
2023-05-05T06:11:27.356Z,102257.00
2023-05-05T06:16:30.585Z,102261.00
2023-05-05T06:21:36.439Z,102252.00
2023-05-05T06:26:41.113Z,102259.00
2023-05-05T06:31:43.811Z,102259.00
2023-05-05T06:36:46.675Z,102268.00
2023-05-05T06:41:50.804Z,102264.00
2023-05-05T06:46:54.757Z,102271.00
2023-05-05T06:51:57.236Z,102272.00
2023-05-05T06:57:01.384Z,102261.00
2023-05-05T07:02:04.191Z,102257.00
2023-05-05T07:07:06.990Z,102267.00
2023-05-05T07:12:10.887Z,102267.00
2023-05-05T07:17:13.450Z,102266.00
2023-05-05T07:22:15.942Z,102267.00
2023-05-05T07:27:20.381Z,102264.00
2023-05-05T07:32:23.078Z,102268.00
2023-05-05T07:37:26.909Z,102272.00
2023-05-05T07:42:30.971Z,102265.00
2023-05-05T07:47:34.029Z,102273.00
2023-05-05T07:52:46.867Z,102271.00
2023-05-05T07:57:56.111Z,102269.00
2023-05-05T08:03:00.268Z,102276.00
2023-05-05T08:08:03.378Z,102274.00
2023-05-05T08:13:10.548Z,102279.00
2023-05-05T08:18:14.294Z,102279.00
2023-05-05T08:23:17.168Z,102278.00
2023-05-05T08:28:21.309Z,102276.00
2023-05-05T08:33:25.658Z,102283.00
2023-05-05T08:38:28.688Z,102275.00
2023-05-05T08:43:32.920Z,102269.00
2023-05-05T08:48:39.319Z,102276.00
2023-05-05T08:53:56.737Z,102276.00
2023-05-05T08:59:02.537Z,102286.00
2023-05-05T09:04:05.803Z,102284.00
2023-05-05T09:09:09.510Z,102286.00
2023-05-05T09:14:13.530Z,102292.00
2023-05-05T09:19:16.287Z,102297.00
2023-05-05T09:24:18.954Z,102302.00
2023-05-05T09:29:23.551Z,102297.00
2023-05-05T09:34:26.869Z,102289.00
2023-05-05T09:39:29.664Z,102289.00
2023-05-05T09:44:38.287Z,102278.00
2023-05-05T09:49:41.000Z,102289.00
2023-05-05T09:54:46.962Z,102288.00
2023-05-05T09:59:57.792Z,102292.00
2023-05-05T10:05:12.852Z,102278.00
2023-05-05T10:10:17.476Z,102290.00
2023-05-05T10:15:22.973Z,102291.00
2023-05-05T10:20:33.065Z,102285.00
2023-05-05T10:25:50.669Z,102283.00
2023-05-05T10:31:00.474Z,102285.00
2023-05-05T10:36:05.584Z,102284.00
2023-05-05T10:41:10.404Z,102282.00
2023-05-05T10:46:18.007Z,102274.00
2023-05-05T10:51:43.335Z,102275.00
2023-05-05T10:56:47.404Z,102270.00
2023-05-05T11:01:51.514Z,102273.00
2023-05-05T11:07:30.574Z,102271.00
2023-05-05T11:13:12.412Z,102256.00
2023-05-05T11:18:35.588Z,102265.00
2023-05-05T11:23:43.011Z,102260.00
2023-05-05T11:28:59.624Z,102246.00
2023-05-05T11:34:27.238Z,102253.00
2023-05-05T11:39:46.034Z,102254.00
2023-05-05T11:44:49.831Z,102248.00
2023-05-05T11:49:54.062Z,102252.00
2023-05-05T11:55:02.194Z,102261.00
2023-05-05T12:00:08.171Z,102265.00
2023-05-05T12:05:19.630Z,102267.00
2023-05-05T12:10:25.765Z,102251.00
2023-05-05T12:15:30.322Z,102254.00
2023-05-05T12:20:35.269Z,102256.00
2023-05-05T12:25:39.508Z,102249.00
2023-05-05T12:30:42.402Z,102249.00
2023-05-05T12:35:46.749Z,102250.00
2023-05-05T12:40:50.459Z,102241.00
2023-05-05T12:46:04.479Z,102252.00
2023-05-05T12:51:19.443Z,102247.00
2023-05-05T12:56:36.450Z,102239.00
2023-05-05T13:01:49.961Z,102233.00
2023-05-05T13:07:10.817Z,102227.00
2023-05-05T13:12:13.495Z,102221.00
2023-05-05T13:17:16.189Z,102225.00
2023-05-05T13:22:22.380Z,102223.00
2023-05-05T13:27:25.079Z,102209.00
2023-05-05T13:32:27.678Z,102203.00
2023-05-05T13:37:31.881Z,102202.00
2023-05-05T13:42:34.555Z,102205.00
2023-05-05T13:47:37.225Z,102212.00
2023-05-05T13:52:41.170Z,102196.00
2023-05-05T13:57:44.145Z,102193.00
2023-05-05T14:02:46.929Z,102203.00
2023-05-05T14:07:51.013Z,102182.00
2023-05-05T14:12:53.549Z,102196.00
2023-05-05T14:17:56.741Z,102199.00
2023-05-05T14:23:00.666Z,102181.00
2023-05-05T14:28:03.314Z,102186.00
2023-05-05T14:33:09.465Z,102188.00
2023-05-05T14:38:13.462Z,102186.00
2023-05-05T14:43:16.421Z,102184.00
2023-05-05T14:48:19.215Z,102191.00
2023-05-05T14:53:23.081Z,102191.00
2023-05-05T14:58:25.701Z,102192.00
2023-05-05T15:03:28.548Z,102201.00
2023-05-05T15:08:32.881Z,102202.00
2023-05-05T15:13:35.383Z,102195.00
2023-05-05T15:18:38.104Z,102190.00
2023-05-05T15:23:42.355Z,102179.00
2023-05-05T15:28:45.198Z,102189.00
2023-05-05T15:33:47.777Z,102191.00
2023-05-05T15:38:51.878Z,102185.00
2023-05-05T15:43:54.696Z,102186.00
2023-05-05T15:48:57.314Z,102200.00
2023-05-05T15:54:01.160Z,102194.00
2023-05-05T15:59:03.633Z,102192.00
2023-05-05T16:04:06.423Z,102198.00
2023-05-05T16:09:10.576Z,102204.00
2023-05-05T16:14:13.237Z,102197.00
2023-05-05T16:19:16.134Z,102192.00
2023-05-05T16:24:20.261Z,102193.00
2023-05-05T16:29:22.677Z,102191.00
2023-05-05T16:34:28.408Z,102194.00
2023-05-05T16:39:32.352Z,102190.00
2023-05-05T16:44:34.958Z,102195.00
2023-05-05T16:49:37.360Z,102187.00
2023-05-05T16:54:41.367Z,102186.00
2023-05-05T16:59:44.257Z,102192.00
2023-05-05T17:04:46.984Z,102188.00
2023-05-05T17:09:51.101Z,102191.00
2023-05-05T17:14:56.142Z,102198.00
2023-05-05T17:19:58.978Z,102198.00
2023-05-05T17:25:04.092Z,102220.00
2023-05-05T17:30:09.333Z,102219.00
2023-05-05T17:35:11.947Z,102213.00
2023-05-05T17:40:15.990Z,102225.00
2023-05-05T17:45:18.760Z,102229.00
2023-05-05T17:50:21.446Z,102225.00
2023-05-05T17:55:25.432Z,102219.00
2023-05-05T18:00:28.900Z,102229.00
2023-05-05T18:05:31.804Z,102225.00
2023-05-05T18:10:35.920Z,102227.00
2023-05-05T18:15:38.500Z,102230.00
2023-05-05T18:20:41.124Z,102238.00
2023-05-05T18:25:45.139Z,102242.00
2023-05-05T18:30:47.669Z,102251.00
2023-05-05T18:35:50.550Z,102244.00
2023-05-05T18:40:54.961Z,102251.00
2023-05-05T18:45:57.544Z,102246.00
2023-05-05T18:51:01.711Z,102258.00
2023-05-05T18:56:05.886Z,102258.00
2023-05-05T19:01:08.505Z,102265.00
2023-05-05T19:06:11.030Z,102258.00
2023-05-05T19:11:15.107Z,102247.00
2023-05-05T19:16:18.350Z,102254.00
2023-05-05T19:21:20.822Z,102255.00
2023-05-05T19:26:24.847Z,102241.00
2023-05-05T19:31:27.635Z,102255.00
2023-05-05T19:36:31.719Z,102256.00
2023-05-05T19:41:35.845Z,102248.00
2023-05-05T19:46:38.490Z,102255.00
2023-05-05T19:51:41.641Z,102257.00
2023-05-05T19:56:45.558Z,102256.00
2023-05-05T20:01:48.322Z,102266.00
2023-05-05T20:06:50.815Z,102259.00
2023-05-05T20:11:56.040Z,102263.00
2023-05-05T20:16:59.014Z,102266.00
2023-05-05T20:22:01.458Z,102256.00
2023-05-05T20:27:05.565Z,102246.00
2023-05-05T20:32:08.228Z,102246.00
2023-05-05T20:37:11.826Z,102256.00
2023-05-05T20:42:17.669Z,102237.00
2023-05-05T20:47:20.162Z,102226.00
2023-05-05T20:52:22.608Z,102229.00
2023-05-05T20:57:26.499Z,102233.00
2023-05-05T21:02:29.053Z,102229.00
2023-05-05T21:07:33.005Z,102249.00
2023-05-05T21:12:37.326Z,102236.00
2023-05-05T21:17:39.752Z,102228.00
2023-05-05T21:22:42.405Z,102233.00
2023-05-05T21:27:47.389Z,102227.00
2023-05-05T21:32:49.845Z,102239.00
2023-05-05T21:37:52.286Z,102241.00
2023-05-05T21:42:56.217Z,102247.00
2023-05-05T21:47:58.811Z,102246.00
2023-05-05T21:53:01.510Z,102249.00
2023-05-05T21:58:05.380Z,102257.00
2023-05-05T22:03:08.345Z,102254.00
2023-05-05T22:08:10.872Z,102255.00
2023-05-05T22:13:14.797Z,102243.00
2023-05-05T22:18:17.292Z,102234.00
2023-05-05T22:23:19.884Z,102230.00
2023-05-05T22:28:23.868Z,102226.00
2023-05-05T22:33:26.655Z,102229.00
2023-05-05T22:38:29.094Z,102226.00
2023-05-05T22:43:32.908Z,102233.00
2023-05-05T22:48:35.336Z,102229.00
2023-05-05T22:53:39.012Z,102214.00
2023-05-05T22:58:42.888Z,102208.00
2023-05-05T23:03:45.336Z,102194.00
2023-05-05T23:08:47.839Z,102194.00
2023-05-05T23:13:51.800Z,102196.00
2023-05-05T23:18:54.365Z,102195.00
2023-05-05T23:23:57.071Z,102187.00
2023-05-05T23:29:01.063Z,102182.00
2023-05-05T23:34:03.757Z,102193.00
2023-05-05T23:39:06.412Z,102194.00
2023-05-05T23:44:10.590Z,102191.00
2023-05-05T23:49:13.185Z,102186.00
2023-05-05T23:54:15.777Z,102191.00
2023-05-05T23:59:19.901Z,102178.00
